createdAt,value
2022-09-26T00:01:42.610Z,99.90
2022-09-26T00:04:27.909Z,99.90
2022-09-26T00:06:59.091Z,99.90
2022-09-26T00:09:28.381Z,99.90
2022-09-26T00:11:56.251Z,99.90
2022-09-26T00:14:28.045Z,99.90
2022-09-26T00:16:56.192Z,99.90
2022-09-26T00:19:24.633Z,99.90
2022-09-26T00:21:52.469Z,99.90
2022-09-26T00:24:20.625Z,99.90
2022-09-26T00:26:48.418Z,99.90
2022-09-26T00:29:16.735Z,99.90
2022-09-26T00:31:47.564Z,99.90
2022-09-26T00:34:18.484Z,99.90
2022-09-26T00:36:46.383Z,99.90
2022-09-26T00:39:16.346Z,99.90
2022-09-26T00:41:45.423Z,99.90
2022-09-26T00:44:46.320Z,99.90
2022-09-26T00:47:27.154Z,99.90
2022-09-26T00:50:10.712Z,99.90
2022-09-26T00:52:46.866Z,99.90
2022-09-26T00:55:20.279Z,99.90
2022-09-26T00:57:58.963Z,99.90
2022-09-26T01:00:27.400Z,99.90
2022-09-26T01:02:55.450Z,99.90
2022-09-26T01:05:24.567Z,99.90
2022-09-26T01:07:54.709Z,99.90
2022-09-26T01:10:22.898Z,99.90
2022-09-26T01:12:52.441Z,99.90
2022-09-26T01:15:20.863Z,99.90
2022-09-26T01:17:50.259Z,99.90
2022-09-26T01:20:27.210Z,99.90
2022-09-26T01:23:35.221Z,99.90
2022-09-26T01:26:30.503Z,99.90
2022-09-26T01:29:28.612Z,99.90
2022-09-26T01:32:29.562Z,99.90
2022-09-26T01:35:00.032Z,99.90
2022-09-26T01:37:48.844Z,99.90
2022-09-26T01:40:47.246Z,99.90
2022-09-26T01:43:30.833Z,99.90
2022-09-26T01:46:58.181Z,99.90
2022-09-26T01:50:00.880Z,99.90
2022-09-26T01:52:42.969Z,99.90
2022-09-26T01:55:35.957Z,99.90
2022-09-26T01:58:46.126Z,99.90
2022-09-26T02:01:17.021Z,99.90
2022-09-26T02:03:59.459Z,99.90
2022-09-26T02:06:42.589Z,99.90
2022-09-26T02:09:21.881Z,99.90
2022-09-26T02:11:54.135Z,99.90
2022-09-26T02:14:36.560Z,99.90
2022-09-26T02:17:13.217Z,99.90
2022-09-26T02:20:05.347Z,99.90
2022-09-26T02:22:34.940Z,99.90
2022-09-26T02:25:04.484Z,99.90
2022-09-26T02:27:32.916Z,99.90
2022-09-26T02:30:01.007Z,99.90
2022-09-26T02:32:32.589Z,99.90
2022-09-26T02:35:01.340Z,99.90
2022-09-26T02:37:32.391Z,99.90
2022-09-26T02:40:01.184Z,99.90
2022-09-26T02:42:51.880Z,99.90
2022-09-26T02:46:04.348Z,99.90
2022-09-26T02:49:09.539Z,99.90
2022-09-26T02:52:07.785Z,99.90
2022-09-26T02:55:36.699Z,99.90
2022-09-26T02:58:39.539Z,99.90
2022-09-26T03:01:36.180Z,99.90
2022-09-26T03:04:32.564Z,99.90
2022-09-26T03:07:09.615Z,99.90
2022-09-26T03:09:38.758Z,99.90
2022-09-26T03:12:08.026Z,99.90
2022-09-26T03:14:39.194Z,99.90
2022-09-26T03:17:08.772Z,99.90
2022-09-26T03:19:48.362Z,99.90
2022-09-26T03:22:17.071Z,99.90
2022-09-26T03:24:46.122Z,99.90
2022-09-26T03:27:16.389Z,99.90
2022-09-26T03:29:46.083Z,99.90
2022-09-26T03:32:20.101Z,99.90
2022-09-26T03:34:50.268Z,99.90
2022-09-26T03:37:19.008Z,99.90
2022-09-26T03:39:46.919Z,99.90
2022-09-26T03:42:22.994Z,99.90
2022-09-26T03:44:51.994Z,99.90
2022-09-26T03:47:19.737Z,99.90
2022-09-26T03:49:54.701Z,99.90
2022-09-26T03:52:24.981Z,99.90
2022-09-26T03:54:53.492Z,99.90
2022-09-26T03:57:21.740Z,99.90
2022-09-26T03:59:58.226Z,99.90
2022-09-26T04:02:33.528Z,99.90
2022-09-26T04:05:17.480Z,99.90
2022-09-26T04:07:47.192Z,99.90
2022-09-26T04:10:15.091Z,99.90
2022-09-26T04:12:45.549Z,99.90
2022-09-26T04:15:15.273Z,99.90
2022-09-26T04:17:43.320Z,99.90
2022-09-26T04:20:11.429Z,99.90
2022-09-26T04:22:40.936Z,99.90
2022-09-26T04:25:10.220Z,99.90
2022-09-26T04:27:38.926Z,99.90
2022-09-26T04:30:07.514Z,99.90
2022-09-26T04:32:42.624Z,99.90
2022-09-26T04:35:33.021Z,99.90
2022-09-26T04:38:01.123Z,99.90
2022-09-26T04:40:29.501Z,99.90
2022-09-26T04:43:05.081Z,99.90
2022-09-26T04:45:32.862Z,99.90
2022-09-26T04:48:01.368Z,99.90
2022-09-26T04:50:48.062Z,99.90
2022-09-26T04:53:19.362Z,99.90
2022-09-26T04:55:59.653Z,99.90
2022-09-26T04:58:28.364Z,99.90
2022-09-26T05:00:56.596Z,99.90
2022-09-26T05:03:33.226Z,99.90
2022-09-26T05:06:01.589Z,99.90
2022-09-26T05:08:29.352Z,99.90
2022-09-26T05:10:57.718Z,99.90
2022-09-26T05:13:26.992Z,99.90
2022-09-26T05:15:55.915Z,99.90
2022-09-26T05:18:24.595Z,99.90
2022-09-26T05:20:54.211Z,99.90
2022-09-26T05:23:45.010Z,99.90
2022-09-26T05:26:46.288Z,99.90
2022-09-26T05:29:16.162Z,99.90
2022-09-26T05:31:54.805Z,99.90
2022-09-26T05:34:26.155Z,99.90
2022-09-26T05:36:56.169Z,99.90
2022-09-26T05:39:43.392Z,99.90
2022-09-26T05:42:13.791Z,99.90
2022-09-26T05:44:41.636Z,99.90
2022-09-26T05:47:09.917Z,99.90
2022-09-26T05:49:39.730Z,99.90
2022-09-26T05:52:10.178Z,99.90
2022-09-26T05:54:37.969Z,99.90
2022-09-26T05:57:23.337Z,99.90
2022-09-26T05:59:55.899Z,99.90
2022-09-26T06:02:26.263Z,99.90
2022-09-26T06:05:07.860Z,99.90
2022-09-26T06:07:38.424Z,99.90
2022-09-26T06:10:10.833Z,99.90
2022-09-26T06:12:48.790Z,99.90
2022-09-26T06:15:18.640Z,99.90
2022-09-26T06:17:48.254Z,99.90
2022-09-26T06:20:16.607Z,99.90
2022-09-26T06:22:45.057Z,99.90
2022-09-26T06:25:14.379Z,99.90
2022-09-26T06:27:42.708Z,99.90
2022-09-26T06:30:12.033Z,99.90
2022-09-26T06:32:40.964Z,99.90
2022-09-26T06:35:34.632Z,99.90
2022-09-26T06:38:08.727Z,99.90
2022-09-26T06:40:36.947Z,99.90
2022-09-26T06:43:05.460Z,99.90
2022-09-26T06:45:53.342Z,99.90
2022-09-26T06:48:26.128Z,99.90
2022-09-26T06:51:00.589Z,99.90
2022-09-26T06:53:31.946Z,99.90
2022-09-26T06:56:01.431Z,99.90
2022-09-26T06:58:30.945Z,99.90
2022-09-26T07:01:03.019Z,99.90
2022-09-26T07:03:45.730Z,99.90
2022-09-26T07:06:27.137Z,99.90
2022-09-26T07:09:03.175Z,99.90
2022-09-26T07:12:12.991Z,99.90
2022-09-26T07:14:34.582Z,99.90
2022-09-26T07:17:18.332Z,99.90
2022-09-26T07:20:04.623Z,99.90
2022-09-26T07:22:50.578Z,99.90
2022-09-26T07:25:18.506Z,99.90
2022-09-26T07:27:50.903Z,99.90
2022-09-26T07:30:20.224Z,99.90
2022-09-26T07:33:03.986Z,99.90
2022-09-26T07:35:48.925Z,99.90
2022-09-26T07:38:16.788Z,99.90
2022-09-26T07:40:46.208Z,99.90
2022-09-26T07:43:30.605Z,99.90
2022-09-26T07:46:21.018Z,99.90
2022-09-26T07:49:10.355Z,99.90
2022-09-26T07:52:00.322Z,99.90
2022-09-26T07:54:43.651Z,99.90
2022-09-26T07:57:39.757Z,99.90
2022-09-26T08:00:24.266Z,99.90
2022-09-26T08:03:04.936Z,99.90
2022-09-26T08:05:34.969Z,99.90
2022-09-26T08:08:04.976Z,99.90
2022-09-26T08:10:51.666Z,99.90
2022-09-26T08:13:28.982Z,99.90
2022-09-26T08:16:20.700Z,99.90
2022-09-26T08:18:53.404Z,99.90
2022-09-26T08:21:22.411Z,99.90
2022-09-26T08:23:53.652Z,99.90
2022-09-26T08:26:33.026Z,99.90
2022-09-26T08:29:12.642Z,99.90
2022-09-26T08:31:42.653Z,99.90
2022-09-26T08:34:10.592Z,99.90
2022-09-26T08:36:38.462Z,99.90
2022-09-26T08:39:06.317Z,99.90
2022-09-26T08:42:00.527Z,99.90
2022-09-26T08:44:52.953Z,99.90
2022-09-26T08:47:55.792Z,99.90
2022-09-26T08:50:53.744Z,99.90
2022-09-26T08:53:33.270Z,99.90
2022-09-26T08:56:03.840Z,99.90
2022-09-26T08:58:42.946Z,99.90
2022-09-26T09:01:29.071Z,99.90
2022-09-26T09:04:25.216Z,99.90
2022-09-26T09:07:07.490Z,97.40
2022-09-26T09:09:35.296Z,99.90
2022-09-26T09:12:46.985Z,99.90
2022-09-26T09:15:51.263Z,98.80
2022-09-26T09:18:44.459Z,98.90
2022-09-26T09:21:41.630Z,92.00
2022-09-26T09:24:42.175Z,93.50
2022-09-26T09:30:27.295Z,84.90
2022-09-26T09:33:55.701Z,87.70
2022-09-26T09:36:34.602Z,84.10
2022-09-26T09:39:28.102Z,85.60
2022-09-26T09:42:35.060Z,84.00
2022-09-26T09:45:14.399Z,81.00
2022-09-26T09:47:42.324Z,82.60
2022-09-26T09:50:57.203Z,81.10
2022-09-26T09:53:44.825Z,74.00
2022-09-26T09:57:04.120Z,72.90
2022-09-26T10:00:02.299Z,74.10
2022-09-26T10:02:47.177Z,75.10
2022-09-26T10:05:44.393Z,68.60
2022-09-26T10:08:24.897Z,67.30
2022-09-26T10:11:41.628Z,69.50
2022-09-26T10:15:02.375Z,69.60
2022-09-26T10:21:16.320Z,69.40
2022-09-26T10:23:49.410Z,65.90
2022-09-26T10:26:44.815Z,67.10
2022-09-26T10:29:38.360Z,65.20
2022-09-26T10:32:09.604Z,61.60
2022-09-26T10:34:41.003Z,63.70
2022-09-26T10:37:31.006Z,66.40
2022-09-26T10:40:48.522Z,64.00
2022-09-26T10:43:21.597Z,61.20
2022-09-26T10:45:56.133Z,63.10
2022-09-26T10:49:02.224Z,63.30
2022-09-26T10:52:02.913Z,64.20
2022-09-26T10:54:47.646Z,66.50
2022-09-26T10:57:28.300Z,68.00
2022-09-26T11:00:00.499Z,68.10
2022-09-26T11:02:29.603Z,65.80
2022-09-26T11:05:20.858Z,61.40
2022-09-26T11:08:14.334Z,64.30
2022-09-26T11:11:04.259Z,61.70
2022-09-26T11:14:07.445Z,62.40
2022-09-26T11:16:55.113Z,61.80
2022-09-26T11:19:44.625Z,60.10
2022-09-26T11:22:28.804Z,62.50
2022-09-26T11:25:28.186Z,61.90
2022-09-26T11:28:08.837Z,69.80
2022-09-26T11:31:00.314Z,71.60
2022-09-26T11:33:30.426Z,72.60
2022-09-26T11:36:54.304Z,71.60
2022-09-26T11:39:27.971Z,69.70
2022-09-26T11:42:46.331Z,69.70
2022-09-26T11:45:52.674Z,67.80
2022-09-26T11:49:25.590Z,69.50
2022-09-26T11:52:24.564Z,68.10
2022-09-26T11:55:17.892Z,63.80
2022-09-26T11:57:54.721Z,62.90
2022-09-26T12:00:46.658Z,62.40
2022-09-26T12:03:37.222Z,63.50
2022-09-26T12:06:18.159Z,64.30
2022-09-26T12:09:22.160Z,64.20
2022-09-26T12:12:06.032Z,62.80
2022-09-26T12:14:57.945Z,62.80
2022-09-26T12:18:13.224Z,62.60
2022-09-26T12:21:24.625Z,58.90
2022-09-26T12:24:22.543Z,61.10
2022-09-26T12:27:06.732Z,61.60
2022-09-26T12:30:02.476Z,60.00
2022-09-26T12:33:36.053Z,61.00
2022-09-26T12:36:31.583Z,56.20
2022-09-26T12:39:39.180Z,56.80
2022-09-26T12:43:04.444Z,57.20
2022-09-26T12:46:06.241Z,57.60
2022-09-26T12:48:45.990Z,57.70
2022-09-26T12:51:43.100Z,58.40
2022-09-26T12:54:29.480Z,55.30
2022-09-26T12:57:42.357Z,55.30
2022-09-26T13:00:20.841Z,53.20
2022-09-26T13:03:12.827Z,53.60
2022-09-26T13:06:08.864Z,54.30
2022-09-26T13:08:45.382Z,55.10
2022-09-26T13:11:33.988Z,54.50
2022-09-26T13:14:27.493Z,52.90
2022-09-26T13:17:28.949Z,52.50
2022-09-26T13:20:22.710Z,54.00
2022-09-26T13:23:07.852Z,54.20
2022-09-26T13:25:49.369Z,54.10
2022-09-26T13:28:34.067Z,54.50
2022-09-26T13:31:19.058Z,55.10
2022-09-26T13:34:09.390Z,55.20
2022-09-26T13:36:38.806Z,54.70
2022-09-26T13:39:15.293Z,55.60
2022-09-26T13:41:59.792Z,53.10
2022-09-26T13:44:46.812Z,54.30
2022-09-26T13:47:49.566Z,54.40
2022-09-26T13:50:47.329Z,54.60
2022-09-26T13:53:40.363Z,54.10
2022-09-26T13:56:44.143Z,55.30
2022-09-26T13:59:15.664Z,54.10
2022-09-26T14:02:24.709Z,54.60
2022-09-26T14:05:02.853Z,55.00
2022-09-26T14:08:00.984Z,55.40
2022-09-26T14:10:37.510Z,55.50
2022-09-26T14:13:37.102Z,56.60
2022-09-26T14:16:28.819Z,56.20
2022-09-26T14:19:29.177Z,57.10
2022-09-26T14:22:26.305Z,56.60
2022-09-26T14:24:57.199Z,56.30
2022-09-26T14:27:36.216Z,57.10
2022-09-26T14:30:30.500Z,57.20
2022-09-26T14:33:06.974Z,57.40
2022-09-26T14:35:38.593Z,58.10
2022-09-26T14:38:20.522Z,57.90
2022-09-26T14:40:58.202Z,56.00
2022-09-26T14:43:30.316Z,57.60
2022-09-26T14:46:23.438Z,56.70
2022-09-26T14:49:05.439Z,56.60
2022-09-26T14:51:41.244Z,56.30
2022-09-26T14:54:26.725Z,56.90
2022-09-26T14:57:05.518Z,57.40
2022-09-26T14:59:36.185Z,57.80
2022-09-26T15:02:38.357Z,57.20
2022-09-26T15:05:22.800Z,57.60
2022-09-26T15:07:53.947Z,58.40
2022-09-26T15:10:26.454Z,58.20
2022-09-26T15:13:17.470Z,58.30
2022-09-26T15:15:57.704Z,58.10
2022-09-26T15:18:34.882Z,59.00
2022-09-26T15:21:32.988Z,58.70
2022-09-26T15:24:04.928Z,58.60
2022-09-26T15:26:37.159Z,59.30
2022-09-26T15:29:06.963Z,59.30
2022-09-26T15:31:46.130Z,59.70
2022-09-26T15:34:43.574Z,60.10
2022-09-26T15:37:22.069Z,59.80
2022-09-26T15:39:50.992Z,60.20
2022-09-26T15:42:40.995Z,60.60
2022-09-26T15:45:27.864Z,61.00
2022-09-26T15:48:00.465Z,61.20
2022-09-26T15:50:43.531Z,61.40
2022-09-26T15:53:36.660Z,61.50
2022-09-26T15:56:21.297Z,61.70
2022-09-26T15:59:01.173Z,62.10
2022-09-26T16:01:31.265Z,61.60
2022-09-26T16:04:02.926Z,61.70
2022-09-26T16:06:35.869Z,62.20
2022-09-26T16:09:25.707Z,62.20
2022-09-26T16:11:56.725Z,62.90
2022-09-26T16:14:42.161Z,63.40
2022-09-26T16:17:26.206Z,63.90
2022-09-26T16:19:56.630Z,63.80
2022-09-26T16:22:39.242Z,64.70
2022-09-26T16:25:19.027Z,64.40
2022-09-26T16:27:58.251Z,64.40
2022-09-26T16:30:27.139Z,64.50
2022-09-26T16:33:32.138Z,64.20
2022-09-26T16:36:17.282Z,64.20
2022-09-26T16:39:04.113Z,64.00
2022-09-26T16:44:41.159Z,63.70
2022-09-26T16:47:43.351Z,63.70
2022-09-26T16:50:33.583Z,63.90
2022-09-26T16:53:06.844Z,64.10
2022-09-26T16:55:36.772Z,64.30
2022-09-26T16:58:06.045Z,65.00
2022-09-26T17:00:54.135Z,65.20
2022-09-26T17:03:32.637Z,65.40
2022-09-26T17:06:00.772Z,65.60
2022-09-26T17:08:29.188Z,66.30
2022-09-26T17:11:02.571Z,65.80
2022-09-26T17:13:33.957Z,65.90
2022-09-26T17:16:03.696Z,66.10
2022-09-26T17:18:33.486Z,66.50
2022-09-26T17:21:02.229Z,66.60
2022-09-26T17:23:40.558Z,67.30
2022-09-26T17:26:23.736Z,66.70
2022-09-26T17:28:53.368Z,66.80
2022-09-26T17:31:21.395Z,66.80
2022-09-26T17:33:53.071Z,66.80
2022-09-26T17:36:29.476Z,67.20
2022-09-26T17:38:59.646Z,68.00
2022-09-26T17:41:29.011Z,67.80
2022-09-26T17:44:00.881Z,68.20
2022-09-26T17:46:29.671Z,68.10
2022-09-26T17:48:59.397Z,68.80
2022-09-26T17:51:27.248Z,68.90
2022-09-26T17:53:57.553Z,69.80
2022-09-26T17:56:26.435Z,69.10
2022-09-26T17:58:54.321Z,69.20
2022-09-26T18:01:24.492Z,69.10
2022-09-26T18:03:57.154Z,69.20
2022-09-26T18:06:31.803Z,69.20
2022-09-26T18:09:07.563Z,69.50
2022-09-26T18:11:36.542Z,69.70
2022-09-26T18:14:06.928Z,69.70
2022-09-26T18:16:35.326Z,69.60
2022-09-26T18:19:07.494Z,69.50
2022-09-26T18:21:36.038Z,69.70
2022-09-26T18:24:07.014Z,69.70
2022-09-26T18:26:47.276Z,69.60
2022-09-26T18:29:30.072Z,69.30
2022-09-26T18:31:59.834Z,69.50
2022-09-26T18:34:27.843Z,69.50
2022-09-26T18:37:00.858Z,69.50
2022-09-26T18:39:30.667Z,70.30
2022-09-26T18:42:09.278Z,69.70
2022-09-26T18:44:37.344Z,69.40
2022-09-26T18:47:14.034Z,70.40
2022-09-26T18:49:44.134Z,69.20
2022-09-26T18:52:17.970Z,69.20
2022-09-26T18:55:06.621Z,68.90
2022-09-26T18:57:53.235Z,68.60
2022-09-26T19:00:21.139Z,68.60
2022-09-26T19:02:50.365Z,68.60
2022-09-26T19:05:18.372Z,69.40
2022-09-26T19:07:46.584Z,68.30
2022-09-26T19:10:24.972Z,68.00
2022-09-26T19:12:52.711Z,68.10
2022-09-26T19:15:20.445Z,68.10
2022-09-26T19:17:50.023Z,67.80
2022-09-26T19:20:17.843Z,68.00
2022-09-26T19:22:45.581Z,67.70
2022-09-26T19:25:13.755Z,67.70
2022-09-26T19:27:52.065Z,67.90
2022-09-26T19:30:22.038Z,67.40
2022-09-26T19:32:52.978Z,67.90
2022-09-26T19:35:30.491Z,67.70
2022-09-26T19:38:00.363Z,67.90
2022-09-26T19:40:28.571Z,69.00
2022-09-26T19:42:57.332Z,68.20
2022-09-26T19:45:26.288Z,68.50
2022-09-26T19:47:56.131Z,68.70
2022-09-26T19:50:26.284Z,68.80
2022-09-26T19:52:56.793Z,68.80
2022-09-26T19:55:28.133Z,68.70
2022-09-26T19:58:15.228Z,68.60
2022-09-26T20:00:44.828Z,68.50
2022-09-26T20:03:28.957Z,69.10
2022-09-26T20:05:56.710Z,68.60
2022-09-26T20:08:26.936Z,68.50
2022-09-26T20:10:58.058Z,68.90
2022-09-26T20:13:25.822Z,68.80
2022-09-26T20:15:54.630Z,68.80
2022-09-26T20:18:24.146Z,69.10
2022-09-26T20:20:56.889Z,68.90
2022-09-26T20:23:27.091Z,68.60
2022-09-26T20:25:55.939Z,68.50
2022-09-26T20:28:23.696Z,68.70
2022-09-26T20:30:51.495Z,68.50
2022-09-26T20:33:22.389Z,68.90
2022-09-26T20:36:02.607Z,69.10
2022-09-26T20:38:42.374Z,69.70
2022-09-26T20:41:34.928Z,69.80
2022-09-26T20:44:07.051Z,70.60
2022-09-26T20:46:39.467Z,70.60
2022-09-26T20:49:14.932Z,70.50
2022-09-26T20:51:44.466Z,70.60
2022-09-26T20:54:28.818Z,70.80
2022-09-26T20:56:57.992Z,70.80
2022-09-26T20:59:27.152Z,70.70
2022-09-26T21:01:57.043Z,71.00
2022-09-26T21:04:32.629Z,71.10
2022-09-26T21:07:00.444Z,70.80
2022-09-26T21:09:28.198Z,70.60
2022-09-26T21:11:55.919Z,70.50
2022-09-26T21:14:23.859Z,70.60
2022-09-26T21:16:52.547Z,69.80
2022-09-26T21:19:24.291Z,70.10
2022-09-26T21:22:02.847Z,70.00
2022-09-26T21:24:49.160Z,69.80
2022-09-26T21:27:17.143Z,69.80
2022-09-26T21:29:44.908Z,69.60
2022-09-26T21:32:21.048Z,70.30
2022-09-26T21:34:59.800Z,70.20
2022-09-26T21:37:27.887Z,69.50
2022-09-26T21:39:55.777Z,69.70
2022-09-26T21:42:26.237Z,69.60
2022-09-26T21:45:05.607Z,69.00
2022-09-26T21:47:36.483Z,68.90
2022-09-26T21:50:06.784Z,68.80
2022-09-26T21:53:02.693Z,69.60
2022-09-26T21:55:38.760Z,69.80
2022-09-26T21:58:15.397Z,69.20
2022-09-26T22:00:43.204Z,69.80
2022-09-26T22:03:10.986Z,69.40
2022-09-26T22:05:39.077Z,69.10
2022-09-26T22:08:06.901Z,69.80
2022-09-26T22:10:37.000Z,70.20
2022-09-26T22:13:05.337Z,70.50
2022-09-26T22:15:33.358Z,71.40
2022-09-26T22:18:01.262Z,71.50
2022-09-26T22:20:29.221Z,72.00
2022-09-26T22:22:56.986Z,71.80
2022-09-26T22:25:25.825Z,72.20
2022-09-26T22:27:53.743Z,72.20
2022-09-26T22:30:21.562Z,72.30
2022-09-26T22:32:49.338Z,72.30
2022-09-26T22:35:17.299Z,72.30
2022-09-26T22:37:45.338Z,73.10
2022-09-26T22:40:13.154Z,74.10
2022-09-26T22:42:41.007Z,75.00
2022-09-26T22:45:09.639Z,74.70
2022-09-26T22:47:38.233Z,75.40
2022-09-26T22:50:06.408Z,76.80
2022-09-26T22:52:34.300Z,77.40
2022-09-26T22:55:02.240Z,77.60
2022-09-26T22:57:31.503Z,78.30
2022-09-26T22:59:59.312Z,78.40
2022-09-26T23:02:27.056Z,78.70
2022-09-26T23:04:54.787Z,79.30
2022-09-26T23:07:22.568Z,79.80
2022-09-26T23:09:50.403Z,79.40
2022-09-26T23:12:19.074Z,79.50
2022-09-26T23:14:46.867Z,79.90
2022-09-26T23:17:14.959Z,80.50
2022-09-26T23:19:42.840Z,80.60
2022-09-26T23:22:10.585Z,81.20
2022-09-26T23:24:38.358Z,81.70
2022-09-26T23:27:06.250Z,82.00
2022-09-26T23:29:34.209Z,82.50
2022-09-26T23:32:02.060Z,82.90
2022-09-26T23:34:29.867Z,83.20
2022-09-26T23:36:57.702Z,83.30
2022-09-26T23:39:25.472Z,84.10
2022-09-26T23:41:53.206Z,85.20
2022-09-26T23:44:20.968Z,85.30
2022-09-26T23:46:48.720Z,85.20
2022-09-26T23:49:17.627Z,85.50
2022-09-26T23:51:47.605Z,85.80
2022-09-26T23:54:15.450Z,85.80
2022-09-26T23:56:43.183Z,86.30
2022-09-26T23:59:10.937Z,87.10
